sensor_id;sensor_type;location;lat;lon;timestamp;temperature;humidity
41838;DHT22;27511;52.042;5.178;2022-08-20T00:00:40;24.10;99.90
41838;DHT22;27511;52.042;5.178;2022-08-20T00:05:43;24.20;99.90
41838;DHT22;27511;52.042;5.178;2022-08-20T00:08:09;24.20;99.90
41838;DHT22;27511;52.042;5.178;2022-08-20T00:10:38;24.10;99.90
41838;DHT22;27511;52.042;5.178;2022-08-20T00:13:07;24.10;99.90
41838;DHT22;27511;52.042;5.178;2022-08-20T00:15:35;24.10;99.90
41838;DHT22;27511;52.042;5.178;2022-08-20T00:18:01;24.10;99.90
41838;DHT22;27511;52.042;5.178;2022-08-20T00:20:33;24.10;99.90
41838;DHT22;27511;52.042;5.178;2022-08-20T00:22:58;24.00;99.90
41838;DHT22;27511;52.042;5.178;2022-08-20T00:25:27;24.10;99.90
41838;DHT22;27511;52.042;5.178;2022-08-20T00:27:53;24.10;99.90
41838;DHT22;27511;52.042;5.178;2022-08-20T00:30:19;24.20;99.90
41838;DHT22;27511;52.042;5.178;2022-08-20T00:32:57;24.10;99.90
41838;DHT22;27511;52.042;5.178;2022-08-20T00:35:25;24.10;99.90
41838;DHT22;27511;52.042;5.178;2022-08-20T00:37:52;24.00;99.90
41838;DHT22;27511;52.042;5.178;2022-08-20T00:40:22;24.10;99.90
41838;DHT22;27511;52.042;5.178;2022-08-20T00:42:54;24.10;99.90
41838;DHT22;27511;52.042;5.178;2022-08-20T00:45:25;24.10;99.90
41838;DHT22;27511;52.042;5.178;2022-08-20T00:47:51;24.10;99.90
41838;DHT22;27511;52.042;5.178;2022-08-20T00:50:22;24.00;99.90
41838;DHT22;27511;52.042;5.178;2022-08-20T00:52:50;24.00;99.90
41838;DHT22;27511;52.042;5.178;2022-08-20T00:55:20;24.00;99.90
41838;DHT22;27511;52.042;5.178;2022-08-20T00:57:49;23.90;99.90
41838;DHT22;27511;52.042;5.178;2022-08-20T01:00:25;23.90;99.90
41838;DHT22;27511;52.042;5.178;2022-08-20T01:02:51;23.80;99.90
41838;DHT22;27511;52.042;5.178;2022-08-20T01:05:17;23.80;99.90
41838;DHT22;27511;52.042;5.178;2022-08-20T01:07:43;23.90;99.90
41838;DHT22;27511;52.042;5.178;2022-08-20T01:10:16;23.80;99.90
41838;DHT22;27511;52.042;5.178;2022-08-20T01:12:43;23.80;99.90
41838;DHT22;27511;52.042;5.178;2022-08-20T01:15:12;23.90;99.90
41838;DHT22;27511;52.042;5.178;2022-08-20T01:17:42;23.90;99.90
41838;DHT22;27511;52.042;5.178;2022-08-20T01:20:16;24.00;99.90
41838;DHT22;27511;52.042;5.178;2022-08-20T01:22:58;23.90;99.90
41838;DHT22;27511;52.042;5.178;2022-08-20T01:25:57;23.80;99.90
41838;DHT22;27511;52.042;5.178;2022-08-20T01:31:15;23.80;99.90
41838;DHT22;27511;52.042;5.178;2022-08-20T01:33:41;23.80;99.90
41838;DHT22;27511;52.042;5.178;2022-08-20T01:36:09;23.70;99.90
41838;DHT22;27511;52.042;5.178;2022-08-20T01:38:35;23.80;99.90
41838;DHT22;27511;52.042;5.178;2022-08-20T01:44:01;23.70;99.90
41838;DHT22;27511;52.042;5.178;2022-08-20T01:46:30;23.70;99.90
41838;DHT22;27511;52.042;5.178;2022-08-20T01:48:58;23.70;99.90
41838;DHT22;27511;52.042;5.178;2022-08-20T01:51:26;23.60;99.90
41838;DHT22;27511;52.042;5.178;2022-08-20T01:53:53;23.70;99.90
41838;DHT22;27511;52.042;5.178;2022-08-20T01:56:25;23.70;99.90
41838;DHT22;27511;52.042;5.178;2022-08-20T01:58:53;23.60;99.90
41838;DHT22;27511;52.042;5.178;2022-08-20T02:03:49;23.80;99.90
41838;DHT22;27511;52.042;5.178;2022-08-20T02:06:15;23.80;99.90
41838;DHT22;27511;52.042;5.178;2022-08-20T02:08:40;23.80;99.90
41838;DHT22;27511;52.042;5.178;2022-08-20T02:11:08;23.80;99.90
41838;DHT22;27511;52.042;5.178;2022-08-20T02:13:34;23.80;99.90
41838;DHT22;27511;52.042;5.178;2022-08-20T02:15:59;23.70;99.90
41838;DHT22;27511;52.042;5.178;2022-08-20T02:18:25;23.60;99.90
41838;DHT22;27511;52.042;5.178;2022-08-20T02:20:51;23.60;99.90
41838;DHT22;27511;52.042;5.178;2022-08-20T02:23:17;23.70;99.90
41838;DHT22;27511;52.042;5.178;2022-08-20T02:25:44;23.60;99.90
41838;DHT22;27511;52.042;5.178;2022-08-20T02:28:14;23.70;99.90
41838;DHT22;27511;52.042;5.178;2022-08-20T02:30:43;23.60;99.90
41838;DHT22;27511;52.042;5.178;2022-08-20T02:33:11;23.60;99.90
41838;DHT22;27511;52.042;5.178;2022-08-20T02:35:40;23.40;99.90
41838;DHT22;27511;52.042;5.178;2022-08-20T02:38:08;23.40;99.90
41838;DHT22;27511;52.042;5.178;2022-08-20T02:40:34;23.40;99.90
41838;DHT22;27511;52.042;5.178;2022-08-20T02:43:01;23.20;99.90
41838;DHT22;27511;52.042;5.178;2022-08-20T02:45:28;23.20;99.90
41838;DHT22;27511;52.042;5.178;2022-08-20T02:47:54;23.10;99.90
41838;DHT22;27511;52.042;5.178;2022-08-20T02:50:22;23.10;99.90
41838;DHT22;27511;52.042;5.178;2022-08-20T02:52:48;23.10;99.90
41838;DHT22;27511;52.042;5.178;2022-08-20T02:55:14;23.20;99.90
41838;DHT22;27511;52.042;5.178;2022-08-20T02:57:41;23.10;99.90
41838;DHT22;27511;52.042;5.178;2022-08-20T03:00:13;23.10;99.90
41838;DHT22;27511;52.042;5.178;2022-08-20T03:02:40;23.10;99.90
41838;DHT22;27511;52.042;5.178;2022-08-20T03:05:06;23.10;99.90
41838;DHT22;27511;52.042;5.178;2022-08-20T03:07:31;23.10;99.90
41838;DHT22;27511;52.042;5.178;2022-08-20T03:09:57;23.00;99.90
41838;DHT22;27511;52.042;5.178;2022-08-20T03:12:23;23.10;99.90
41838;DHT22;27511;52.042;5.178;2022-08-20T03:14:49;23.00;99.90
41838;DHT22;27511;52.042;5.178;2022-08-20T03:17:14;23.00;99.90
41838;DHT22;27511;52.042;5.178;2022-08-20T03:19:40;22.90;99.90
41838;DHT22;27511;52.042;5.178;2022-08-20T03:22:06;22.80;99.90
41838;DHT22;27511;52.042;5.178;2022-08-20T03:24:31;22.80;99.90
41838;DHT22;27511;52.042;5.178;2022-08-20T03:26:57;22.80;99.90
41838;DHT22;27511;52.042;5.178;2022-08-20T03:29:22;22.80;99.90
41838;DHT22;27511;52.042;5.178;2022-08-20T03:31:49;22.80;99.90
41838;DHT22;27511;52.042;5.178;2022-08-20T03:34:15;22.70;99.90
41838;DHT22;27511;52.042;5.178;2022-08-20T03:36:40;22.70;99.90
41838;DHT22;27511;52.042;5.178;2022-08-20T03:39:07;22.80;99.90
41838;DHT22;27511;52.042;5.178;2022-08-20T03:41:36;22.80;99.90
41838;DHT22;27511;52.042;5.178;2022-08-20T03:44:02;22.70;99.90
41838;DHT22;27511;52.042;5.178;2022-08-20T03:46:30;22.70;99.90
41838;DHT22;27511;52.042;5.178;2022-08-20T03:48:55;22.70;99.90
41838;DHT22;27511;52.042;5.178;2022-08-20T03:51:21;22.80;99.90
41838;DHT22;27511;52.042;5.178;2022-08-20T03:53:46;22.70;99.90
41838;DHT22;27511;52.042;5.178;2022-08-20T03:56:12;22.70;99.90
41838;DHT22;27511;52.042;5.178;2022-08-20T03:58:37;22.70;99.90
41838;DHT22;27511;52.042;5.178;2022-08-20T04:01:05;22.60;99.90
41838;DHT22;27511;52.042;5.178;2022-08-20T04:03:31;22.50;99.90
41838;DHT22;27511;52.042;5.178;2022-08-20T04:05:57;22.50;99.90
41838;DHT22;27511;52.042;5.178;2022-08-20T04:08:25;22.50;99.90
41838;DHT22;27511;52.042;5.178;2022-08-20T04:10:52;22.50;99.90
41838;DHT22;27511;52.042;5.178;2022-08-20T04:13:20;22.50;99.90
41838;DHT22;27511;52.042;5.178;2022-08-20T04:15:47;22.50;99.90
41838;DHT22;27511;52.042;5.178;2022-08-20T04:18:14;22.50;99.90
41838;DHT22;27511;52.042;5.178;2022-08-20T04:20:41;22.50;99.90
41838;DHT22;27511;52.042;5.178;2022-08-20T04:23:08;22.50;99.90
41838;DHT22;27511;52.042;5.178;2022-08-20T04:25:35;22.50;99.90
41838;DHT22;27511;52.042;5.178;2022-08-20T04:28:07;22.50;99.90
41838;DHT22;27511;52.042;5.178;2022-08-20T04:30:33;22.40;99.90
41838;DHT22;27511;52.042;5.178;2022-08-20T04:32:59;22.40;99.90
41838;DHT22;27511;52.042;5.178;2022-08-20T04:35:25;22.30;99.90
41838;DHT22;27511;52.042;5.178;2022-08-20T04:38:05;22.30;99.90
41838;DHT22;27511;52.042;5.178;2022-08-20T04:40:31;22.30;99.90
41838;DHT22;27511;52.042;5.178;2022-08-20T04:43:16;22.30;99.90
41838;DHT22;27511;52.042;5.178;2022-08-20T04:45:42;22.20;99.90
41838;DHT22;27511;52.042;5.178;2022-08-20T04:48:09;22.30;99.90
41838;DHT22;27511;52.042;5.178;2022-08-20T04:50:37;22.20;99.90
41838;DHT22;27511;52.042;5.178;2022-08-20T04:53:05;22.10;99.90
41838;DHT22;27511;52.042;5.178;2022-08-20T04:55:31;22.10;99.90
41838;DHT22;27511;52.042;5.178;2022-08-20T04:58:13;22.10;99.90
41838;DHT22;27511;52.042;5.178;2022-08-20T05:00:39;22.00;99.90
41838;DHT22;27511;52.042;5.178;2022-08-20T05:03:05;22.10;99.90
41838;DHT22;27511;52.042;5.178;2022-08-20T05:05:33;21.90;99.90
41838;DHT22;27511;52.042;5.178;2022-08-20T05:08:04;21.90;99.90
41838;DHT22;27511;52.042;5.178;2022-08-20T05:10:30;21.90;99.90
41838;DHT22;27511;52.042;5.178;2022-08-20T05:12:56;21.80;99.90
41838;DHT22;27511;52.042;5.178;2022-08-20T05:15:21;21.80;99.90
41838;DHT22;27511;52.042;5.178;2022-08-20T05:17:54;21.80;99.90
41838;DHT22;27511;52.042;5.178;2022-08-20T05:20:20;21.70;99.90
41838;DHT22;27511;52.042;5.178;2022-08-20T05:22:45;21.70;99.90
41838;DHT22;27511;52.042;5.178;2022-08-20T05:25:11;21.70;99.90
41838;DHT22;27511;52.042;5.178;2022-08-20T05:27:36;21.70;99.90
41838;DHT22;27511;52.042;5.178;2022-08-20T05:30:07;21.70;99.90
41838;DHT22;27511;52.042;5.178;2022-08-20T05:32:34;21.70;99.90
41838;DHT22;27511;52.042;5.178;2022-08-20T05:35:01;21.70;99.90
41838;DHT22;27511;52.042;5.178;2022-08-20T05:37:27;21.60;99.90
41838;DHT22;27511;52.042;5.178;2022-08-20T05:39:54;21.60;99.90
41838;DHT22;27511;52.042;5.178;2022-08-20T05:42:20;21.60;99.90
41838;DHT22;27511;52.042;5.178;2022-08-20T05:44:45;21.60;99.90
41838;DHT22;27511;52.042;5.178;2022-08-20T05:47:11;21.60;99.90
41838;DHT22;27511;52.042;5.178;2022-08-20T05:49:37;21.60;99.90
41838;DHT22;27511;52.042;5.178;2022-08-20T05:52:03;21.80;99.90
41838;DHT22;27511;52.042;5.178;2022-08-20T05:54:30;21.80;99.90
41838;DHT22;27511;52.042;5.178;2022-08-20T05:56:56;21.80;99.90
41838;DHT22;27511;52.042;5.178;2022-08-20T05:59:22;21.80;99.90
41838;DHT22;27511;52.042;5.178;2022-08-20T06:01:48;21.90;99.90
41838;DHT22;27511;52.042;5.178;2022-08-20T06:04:14;21.90;99.90
41838;DHT22;27511;52.042;5.178;2022-08-20T06:06:50;21.90;99.90
41838;DHT22;27511;52.042;5.178;2022-08-20T06:09:19;22.00;99.90
41838;DHT22;27511;52.042;5.178;2022-08-20T06:11:45;22.20;99.90
41838;DHT22;27511;52.042;5.178;2022-08-20T06:14:11;22.30;99.90
41838;DHT22;27511;52.042;5.178;2022-08-20T06:16:37;22.40;99.90
41838;DHT22;27511;52.042;5.178;2022-08-20T06:19:03;22.50;99.90
41838;DHT22;27511;52.042;5.178;2022-08-20T06:21:29;22.50;99.90
41838;DHT22;27511;52.042;5.178;2022-08-20T06:23:54;22.50;99.90
41838;DHT22;27511;52.042;5.178;2022-08-20T06:26:20;22.50;99.90
41838;DHT22;27511;52.042;5.178;2022-08-20T06:28:46;22.50;99.90
41838;DHT22;27511;52.042;5.178;2022-08-20T06:31:11;22.40;99.90
41838;DHT22;27511;52.042;5.178;2022-08-20T06:33:37;22.40;99.90
41838;DHT22;27511;52.042;5.178;2022-08-20T06:36:03;22.50;99.90
41838;DHT22;27511;52.042;5.178;2022-08-20T06:38:28;22.40;99.90
41838;DHT22;27511;52.042;5.178;2022-08-20T06:40:57;22.40;99.90
41838;DHT22;27511;52.042;5.178;2022-08-20T06:43:22;22.40;99.90
41838;DHT22;27511;52.042;5.178;2022-08-20T06:45:48;22.30;99.90
41838;DHT22;27511;52.042;5.178;2022-08-20T06:48:13;22.30;99.90
41838;DHT22;27511;52.042;5.178;2022-08-20T06:50:42;22.30;99.90
41838;DHT22;27511;52.042;5.178;2022-08-20T06:53:10;22.30;99.90
41838;DHT22;27511;52.042;5.178;2022-08-20T06:55:38;22.30;99.90
41838;DHT22;27511;52.042;5.178;2022-08-20T06:58:06;22.40;99.90
41838;DHT22;27511;52.042;5.178;2022-08-20T07:00:34;22.40;99.90
41838;DHT22;27511;52.042;5.178;2022-08-20T07:03:01;22.40;99.90
41838;DHT22;27511;52.042;5.178;2022-08-20T07:05:28;22.50;99.90
41838;DHT22;27511;52.042;5.178;2022-08-20T07:07:54;22.50;99.90
41838;DHT22;27511;52.042;5.178;2022-08-20T07:10:21;22.50;99.90
41838;DHT22;27511;52.042;5.178;2022-08-20T07:12:47;22.50;99.90
41838;DHT22;27511;52.042;5.178;2022-08-20T07:15:16;22.50;99.90
41838;DHT22;27511;52.042;5.178;2022-08-20T07:17:48;22.60;99.90
41838;DHT22;27511;52.042;5.178;2022-08-20T07:20:14;22.60;99.90
41838;DHT22;27511;52.042;5.178;2022-08-20T07:22:40;22.60;99.90
41838;DHT22;27511;52.042;5.178;2022-08-20T07:25:08;22.60;99.90
41838;DHT22;27511;52.042;5.178;2022-08-20T07:27:34;22.60;99.90
41838;DHT22;27511;52.042;5.178;2022-08-20T07:30:02;22.60;99.90
41838;DHT22;27511;52.042;5.178;2022-08-20T07:32:46;22.60;99.90
41838;DHT22;27511;52.042;5.178;2022-08-20T07:35:14;22.60;99.90
41838;DHT22;27511;52.042;5.178;2022-08-20T07:37:42;22.70;99.90
41838;DHT22;27511;52.042;5.178;2022-08-20T07:40:21;22.80;99.90
41838;DHT22;27511;52.042;5.178;2022-08-20T07:42:47;22.80;99.90
41838;DHT22;27511;52.042;5.178;2022-08-20T07:45:15;22.90;99.90
41838;DHT22;27511;52.042;5.178;2022-08-20T07:47:43;22.80;99.90
41838;DHT22;27511;52.042;5.178;2022-08-20T07:50:12;22.90;99.90
41838;DHT22;27511;52.042;5.178;2022-08-20T07:52:38;22.90;99.90
41838;DHT22;27511;52.042;5.178;2022-08-20T07:55:09;22.80;99.90
41838;DHT22;27511;52.042;5.178;2022-08-20T07:57:36;22.90;99.90
41838;DHT22;27511;52.042;5.178;2022-08-20T08:00:04;22.90;99.90
41838;DHT22;27511;52.042;5.178;2022-08-20T08:02:30;22.90;99.90
41838;DHT22;27511;52.042;5.178;2022-08-20T08:04:56;22.90;99.90
41838;DHT22;27511;52.042;5.178;2022-08-20T08:07:22;23.00;99.90
41838;DHT22;27511;52.042;5.178;2022-08-20T08:09:48;23.00;99.90
41838;DHT22;27511;52.042;5.178;2022-08-20T08:12:17;23.10;99.90
41838;DHT22;27511;52.042;5.178;2022-08-20T08:14:43;23.10;99.90
41838;DHT22;27511;52.042;5.178;2022-08-20T08:17:10;23.20;99.90
41838;DHT22;27511;52.042;5.178;2022-08-20T08:19:40;23.20;99.90
41838;DHT22;27511;52.042;5.178;2022-08-20T08:22:09;23.30;99.90
41838;DHT22;27511;52.042;5.178;2022-08-20T08:24:37;23.30;99.90
41838;DHT22;27511;52.042;5.178;2022-08-20T08:27:03;23.20;99.90
41838;DHT22;27511;52.042;5.178;2022-08-20T08:29:28;23.20;99.90
41838;DHT22;27511;52.042;5.178;2022-08-20T08:31:55;23.20;99.90
41838;DHT22;27511;52.042;5.178;2022-08-20T08:34:21;23.30;99.90
41838;DHT22;27511;52.042;5.178;2022-08-20T08:36:50;23.40;99.90
41838;DHT22;27511;52.042;5.178;2022-08-20T08:39:16;23.40;99.90
41838;DHT22;27511;52.042;5.178;2022-08-20T08:41:45;23.50;99.90
41838;DHT22;27511;52.042;5.178;2022-08-20T08:44:18;23.50;99.90
41838;DHT22;27511;52.042;5.178;2022-08-20T08:47:00;23.60;99.90
41838;DHT22;27511;52.042;5.178;2022-08-20T08:49:29;23.50;99.90
41838;DHT22;27511;52.042;5.178;2022-08-20T08:52:00;23.50;99.90
41838;DHT22;27511;52.042;5.178;2022-08-20T08:54:29;23.60;99.90
41838;DHT22;27511;52.042;5.178;2022-08-20T08:56:56;23.70;99.90
41838;DHT22;27511;52.042;5.178;2022-08-20T08:59:26;23.60;99.90
41838;DHT22;27511;52.042;5.178;2022-08-20T09:01:54;23.70;99.90
41838;DHT22;27511;52.042;5.178;2022-08-20T09:04:21;23.70;99.90
41838;DHT22;27511;52.042;5.178;2022-08-20T09:06:49;23.80;99.90
41838;DHT22;27511;52.042;5.178;2022-08-20T09:09:26;23.70;99.90
41838;DHT22;27511;52.042;5.178;2022-08-20T09:11:54;23.90;99.90
41838;DHT22;27511;52.042;5.178;2022-08-20T09:14:21;24.10;99.90
41838;DHT22;27511;52.042;5.178;2022-08-20T09:16:49;24.10;99.90
41838;DHT22;27511;52.042;5.178;2022-08-20T09:19:15;24.00;99.90
41838;DHT22;27511;52.042;5.178;2022-08-20T09:21:41;24.10;99.90
41838;DHT22;27511;52.042;5.178;2022-08-20T09:24:07;24.00;99.90
41838;DHT22;27511;52.042;5.178;2022-08-20T09:26:32;24.00;99.90
41838;DHT22;27511;52.042;5.178;2022-08-20T09:28:58;24.10;99.90
41838;DHT22;27511;52.042;5.178;2022-08-20T09:31:23;24.10;99.90
41838;DHT22;27511;52.042;5.178;2022-08-20T09:33:50;24.10;99.90
41838;DHT22;27511;52.042;5.178;2022-08-20T09:36:15;24.20;99.90
41838;DHT22;27511;52.042;5.178;2022-08-20T09:38:41;24.30;99.90
41838;DHT22;27511;52.042;5.178;2022-08-20T09:41:07;24.30;99.90
41838;DHT22;27511;52.042;5.178;2022-08-20T09:43:32;24.40;99.90
41838;DHT22;27511;52.042;5.178;2022-08-20T09:45:58;24.40;99.90
41838;DHT22;27511;52.042;5.178;2022-08-20T09:48:23;24.40;99.90
41838;DHT22;27511;52.042;5.178;2022-08-20T09:50:49;24.40;99.90
41838;DHT22;27511;52.042;5.178;2022-08-20T09:53:16;24.40;99.90
41838;DHT22;27511;52.042;5.178;2022-08-20T09:55:45;24.50;99.90
41838;DHT22;27511;52.042;5.178;2022-08-20T09:58:31;24.50;99.90
41838;DHT22;27511;52.042;5.178;2022-08-20T10:01:00;24.60;99.90
41838;DHT22;27511;52.042;5.178;2022-08-20T10:03:27;24.60;99.90
41838;DHT22;27511;52.042;5.178;2022-08-20T10:05:53;24.70;99.90
41838;DHT22;27511;52.042;5.178;2022-08-20T10:08:18;24.70;99.90
41838;DHT22;27511;52.042;5.178;2022-08-20T10:10:44;24.70;99.90
41838;DHT22;27511;52.042;5.178;2022-08-20T10:13:09;24.80;99.90
41838;DHT22;27511;52.042;5.178;2022-08-20T10:15:35;24.70;99.90
41838;DHT22;27511;52.042;5.178;2022-08-20T10:18:04;24.60;99.90
41838;DHT22;27511;52.042;5.178;2022-08-20T10:20:32;24.70;99.90
41838;DHT22;27511;52.042;5.178;2022-08-20T10:22:58;24.90;99.90
41838;DHT22;27511;52.042;5.178;2022-08-20T10:25:24;24.90;99.90
41838;DHT22;27511;52.042;5.178;2022-08-20T10:27:52;24.90;99.90
41838;DHT22;27511;52.042;5.178;2022-08-20T10:30:17;25.00;99.90
41838;DHT22;27511;52.042;5.178;2022-08-20T10:32:43;25.10;99.90
41838;DHT22;27511;52.042;5.178;2022-08-20T10:35:08;25.20;99.90
41838;DHT22;27511;52.042;5.178;2022-08-20T10:37:34;25.20;99.90
41838;DHT22;27511;52.042;5.178;2022-08-20T10:40:01;25.20;99.90
41838;DHT22;27511;52.042;5.178;2022-08-20T10:42:26;25.10;99.90
41838;DHT22;27511;52.042;5.178;2022-08-20T10:44:52;25.20;99.90
41838;DHT22;27511;52.042;5.178;2022-08-20T10:47:23;25.40;99.90
41838;DHT22;27511;52.042;5.178;2022-08-20T10:49:51;25.40;99.90
41838;DHT22;27511;52.042;5.178;2022-08-20T10:52:18;25.50;99.90
41838;DHT22;27511;52.042;5.178;2022-08-20T10:54:44;25.50;99.90
41838;DHT22;27511;52.042;5.178;2022-08-20T10:57:20;25.50;99.90
41838;DHT22;27511;52.042;5.178;2022-08-20T10:59:47;25.60;99.90
41838;DHT22;27511;52.042;5.178;2022-08-20T11:02:13;25.80;99.90
41838;DHT22;27511;52.042;5.178;2022-08-20T11:04:39;25.80;99.90
41838;DHT22;27511;52.042;5.178;2022-08-20T11:07:11;25.80;99.90
41838;DHT22;27511;52.042;5.178;2022-08-20T11:09:37;25.80;99.90
41838;DHT22;27511;52.042;5.178;2022-08-20T11:12:03;25.80;99.90
41838;DHT22;27511;52.042;5.178;2022-08-20T11:14:29;25.80;99.90
41838;DHT22;27511;52.042;5.178;2022-08-20T11:16:55;25.80;99.90
41838;DHT22;27511;52.042;5.178;2022-08-20T11:19:21;26.10;99.90
41838;DHT22;27511;52.042;5.178;2022-08-20T11:21:46;26.20;99.90
41838;DHT22;27511;52.042;5.178;2022-08-20T11:24:12;26.10;99.90
41838;DHT22;27511;52.042;5.178;2022-08-20T11:26:38;26.10;99.90
41838;DHT22;27511;52.042;5.178;2022-08-20T11:29:03;26.00;99.90
41838;DHT22;27511;52.042;5.178;2022-08-20T11:31:29;26.00;99.90
41838;DHT22;27511;52.042;5.178;2022-08-20T11:33:54;26.00;99.90
41838;DHT22;27511;52.042;5.178;2022-08-20T11:36:21;25.90;99.90
41838;DHT22;27511;52.042;5.178;2022-08-20T11:38:51;25.90;99.90
41838;DHT22;27511;52.042;5.178;2022-08-20T11:41:16;25.90;99.90
41838;DHT22;27511;52.042;5.178;2022-08-20T11:43:42;25.90;99.90
41838;DHT22;27511;52.042;5.178;2022-08-20T11:46:08;25.80;99.90
41838;DHT22;27511;52.042;5.178;2022-08-20T11:48:33;25.80;99.90
41838;DHT22;27511;52.042;5.178;2022-08-20T11:50:59;25.70;99.90
41838;DHT22;27511;52.042;5.178;2022-08-20T11:53:25;25.80;99.90
41838;DHT22;27511;52.042;5.178;2022-08-20T11:55:50;25.90;99.90
41838;DHT22;27511;52.042;5.178;2022-08-20T11:58:17;26.00;99.90
41838;DHT22;27511;52.042;5.178;2022-08-20T12:00:43;26.10;99.90
41838;DHT22;27511;52.042;5.178;2022-08-20T12:03:09;26.10;99.90
41838;DHT22;27511;52.042;5.178;2022-08-20T12:05:36;26.20;99.90
41838;DHT22;27511;52.042;5.178;2022-08-20T12:08:02;26.30;99.90
41838;DHT22;27511;52.042;5.178;2022-08-20T12:10:29;26.30;99.90
41838;DHT22;27511;52.042;5.178;2022-08-20T12:12:55;26.30;99.90
41838;DHT22;27511;52.042;5.178;2022-08-20T12:15:20;26.30;99.90
41838;DHT22;27511;52.042;5.178;2022-08-20T12:17:46;26.10;99.90
41838;DHT22;27511;52.042;5.178;2022-08-20T12:20:13;26.20;99.90
41838;DHT22;27511;52.042;5.178;2022-08-20T12:22:39;26.20;99.90
41838;DHT22;27511;52.042;5.178;2022-08-20T12:25:06;26.20;99.90
41838;DHT22;27511;52.042;5.178;2022-08-20T12:27:33;26.30;99.90
41838;DHT22;27511;52.042;5.178;2022-08-20T12:30:01;26.30;99.90
41838;DHT22;27511;52.042;5.178;2022-08-20T12:32:28;26.40;99.90
41838;DHT22;27511;52.042;5.178;2022-08-20T12:34:55;26.40;99.90
41838;DHT22;27511;52.042;5.178;2022-08-20T12:37:23;26.30;99.90
41838;DHT22;27511;52.042;5.178;2022-08-20T12:39:52;26.30;99.90
41838;DHT22;27511;52.042;5.178;2022-08-20T12:42:18;26.30;99.90
41838;DHT22;27511;52.042;5.178;2022-08-20T12:44:44;26.30;99.90
41838;DHT22;27511;52.042;5.178;2022-08-20T12:47:15;26.30;99.90
41838;DHT22;27511;52.042;5.178;2022-08-20T12:49:47;26.30;99.90
41838;DHT22;27511;52.042;5.178;2022-08-20T12:52:14;26.10;99.90
41838;DHT22;27511;52.042;5.178;2022-08-20T12:54:40;26.20;99.90
41838;DHT22;27511;52.042;5.178;2022-08-20T12:57:06;26.40;99.90
41838;DHT22;27511;52.042;5.178;2022-08-20T12:59:32;26.30;99.90
41838;DHT22;27511;52.042;5.178;2022-08-20T13:01:57;26.30;99.90
41838;DHT22;27511;52.042;5.178;2022-08-20T13:04:23;26.30;99.90
41838;DHT22;27511;52.042;5.178;2022-08-20T13:06:51;26.30;99.90
41838;DHT22;27511;52.042;5.178;2022-08-20T13:09:17;26.30;99.90
41838;DHT22;27511;52.042;5.178;2022-08-20T13:11:43;26.40;99.90
41838;DHT22;27511;52.042;5.178;2022-08-20T13:14:08;26.50;99.90
41838;DHT22;27511;52.042;5.178;2022-08-20T13:16:34;26.60;99.90
41838;DHT22;27511;52.042;5.178;2022-08-20T13:19:00;26.80;99.90
41838;DHT22;27511;52.042;5.178;2022-08-20T13:21:25;26.90;99.90
41838;DHT22;27511;52.042;5.178;2022-08-20T13:23:52;26.90;99.90
41838;DHT22;27511;52.042;5.178;2022-08-20T13:26:17;27.00;99.90
41838;DHT22;27511;52.042;5.178;2022-08-20T13:28:43;27.20;99.90
41838;DHT22;27511;52.042;5.178;2022-08-20T13:31:08;27.50;99.90
41838;DHT22;27511;52.042;5.178;2022-08-20T13:33:34;27.70;99.90
41838;DHT22;27511;52.042;5.178;2022-08-20T13:35:59;27.80;99.90
41838;DHT22;27511;52.042;5.178;2022-08-20T13:38:25;27.80;99.90
41838;DHT22;27511;52.042;5.178;2022-08-20T13:40:51;27.90;99.90
41838;DHT22;27511;52.042;5.178;2022-08-20T13:43:16;27.80;99.90
41838;DHT22;27511;52.042;5.178;2022-08-20T13:45:42;27.80;99.90
41838;DHT22;27511;52.042;5.178;2022-08-20T13:48:08;27.90;99.90
41838;DHT22;27511;52.042;5.178;2022-08-20T13:50:34;28.20;99.90
41838;DHT22;27511;52.042;5.178;2022-08-20T13:53:00;28.40;99.90
41838;DHT22;27511;52.042;5.178;2022-08-20T13:55:27;28.50;99.90
41838;DHT22;27511;52.042;5.178;2022-08-20T13:57:54;28.50;99.90
41838;DHT22;27511;52.042;5.178;2022-08-20T14:00:28;28.30;99.90
41838;DHT22;27511;52.042;5.178;2022-08-20T14:02:54;28.20;99.90
41838;DHT22;27511;52.042;5.178;2022-08-20T14:05:20;27.80;99.90
41838;DHT22;27511;52.042;5.178;2022-08-20T14:07:47;27.60;99.90
41838;DHT22;27511;52.042;5.178;2022-08-20T14:10:18;27.30;99.90
41838;DHT22;27511;52.042;5.178;2022-08-20T14:12:44;27.10;99.90
41838;DHT22;27511;52.042;5.178;2022-08-20T14:15:10;27.00;99.90
41838;DHT22;27511;52.042;5.178;2022-08-20T14:17:38;27.10;99.90
41838;DHT22;27511;52.042;5.178;2022-08-20T14:20:07;27.20;99.90
41838;DHT22;27511;52.042;5.178;2022-08-20T14:22:34;27.20;99.90
41838;DHT22;27511;52.042;5.178;2022-08-20T14:24:59;27.20;99.90
41838;DHT22;27511;52.042;5.178;2022-08-20T14:27:29;27.30;99.90
41838;DHT22;27511;52.042;5.178;2022-08-20T14:29:55;27.30;99.90
41838;DHT22;27511;52.042;5.178;2022-08-20T14:32:21;27.10;99.90
41838;DHT22;27511;52.042;5.178;2022-08-20T14:34:47;27.20;99.90
41838;DHT22;27511;52.042;5.178;2022-08-20T14:37:15;27.60;99.90
41838;DHT22;27511;52.042;5.178;2022-08-20T14:39:43;27.90;99.90
41838;DHT22;27511;52.042;5.178;2022-08-20T14:42:09;28.50;99.90
41838;DHT22;27511;52.042;5.178;2022-08-20T14:44:34;28.80;99.90
41838;DHT22;27511;52.042;5.178;2022-08-20T14:47:10;29.20;99.90
41838;DHT22;27511;52.042;5.178;2022-08-20T14:49:36;28.70;99.90
41838;DHT22;27511;52.042;5.178;2022-08-20T14:52:01;28.00;99.90
41838;DHT22;27511;52.042;5.178;2022-08-20T14:54:27;27.60;99.90
41838;DHT22;27511;52.042;5.178;2022-08-20T14:56:53;27.30;99.90
41838;DHT22;27511;52.042;5.178;2022-08-20T14:59:19;27.10;99.90
41838;DHT22;27511;52.042;5.178;2022-08-20T15:01:44;26.90;99.90
41838;DHT22;27511;52.042;5.178;2022-08-20T15:04:10;26.80;99.90
41838;DHT22;27511;52.042;5.178;2022-08-20T15:06:35;26.70;99.90
41838;DHT22;27511;52.042;5.178;2022-08-20T15:09:01;26.60;99.90
41838;DHT22;27511;52.042;5.178;2022-08-20T15:11:26;26.50;99.90
41838;DHT22;27511;52.042;5.178;2022-08-20T15:13:52;26.40;99.90
41838;DHT22;27511;52.042;5.178;2022-08-20T15:16:19;26.40;99.90
41838;DHT22;27511;52.042;5.178;2022-08-20T15:18:44;26.40;99.90
41838;DHT22;27511;52.042;5.178;2022-08-20T15:21:10;26.30;99.90
41838;DHT22;27511;52.042;5.178;2022-08-20T15:23:35;26.40;99.90
41838;DHT22;27511;52.042;5.178;2022-08-20T15:26:01;26.40;99.90
41838;DHT22;27511;52.042;5.178;2022-08-20T15:28:26;26.30;99.90
41838;DHT22;27511;52.042;5.178;2022-08-20T15:30:52;26.40;99.90
41838;DHT22;27511;52.042;5.178;2022-08-20T15:33:18;26.30;99.90
41838;DHT22;27511;52.042;5.178;2022-08-20T15:35:43;26.10;99.90
41838;DHT22;27511;52.042;5.178;2022-08-20T15:38:09;26.00;99.90
41838;DHT22;27511;52.042;5.178;2022-08-20T15:40:35;26.00;99.90